sensor_id;sensor_type;location;lat;lon;timestamp;temperature;humidity
10306;DHT22;5198;52.382;9.020;2023-03-01T00:02:09;-1.10;99.90
10306;DHT22;5198;52.382;9.020;2023-03-01T00:06:13;-1.20;99.90
10306;DHT22;5198;52.382;9.020;2023-03-01T00:10:18;-1.20;99.90
10306;DHT22;5198;52.382;9.020;2023-03-01T00:14:21;-1.20;99.90
10306;DHT22;5198;52.382;9.020;2023-03-01T00:18:25;-1.20;99.90
10306;DHT22;5198;52.382;9.020;2023-03-01T00:22:29;-1.30;99.90
10306;DHT22;5198;52.382;9.020;2023-03-01T00:26:47;-1.30;99.90
10306;DHT22;5198;52.382;9.020;2023-03-01T00:30:49;-1.30;99.90
10306;DHT22;5198;52.382;9.020;2023-03-01T00:34:52;-1.30;99.90
10306;DHT22;5198;52.382;9.020;2023-03-01T00:38:58;-1.30;99.90
10306;DHT22;5198;52.382;9.020;2023-03-01T00:43:01;-1.40;99.90
10306;DHT22;5198;52.382;9.020;2023-03-01T00:47:05;-1.40;99.90
10306;DHT22;5198;52.382;9.020;2023-03-01T00:51:08;-1.40;99.90
10306;DHT22;5198;52.382;9.020;2023-03-01T00:55:13;-1.50;99.90
10306;DHT22;5198;52.382;9.020;2023-03-01T00:59:15;-1.50;99.90
10306;DHT22;5198;52.382;9.020;2023-03-01T01:03:18;-1.60;99.90
10306;DHT22;5198;52.382;9.020;2023-03-01T01:07:24;-1.60;99.90
10306;DHT22;5198;52.382;9.020;2023-03-01T01:11:28;-1.70;99.90
10306;DHT22;5198;52.382;9.020;2023-03-01T01:15:33;-1.80;99.90
10306;DHT22;5198;52.382;9.020;2023-03-01T01:19:35;-1.80;99.90
10306;DHT22;5198;52.382;9.020;2023-03-01T01:27:47;-1.90;99.90
10306;DHT22;5198;52.382;9.020;2023-03-01T01:31:50;-2.00;99.90
10306;DHT22;5198;52.382;9.020;2023-03-01T01:35:53;-2.00;99.90
10306;DHT22;5198;52.382;9.020;2023-03-01T01:39:56;-2.00;99.90
10306;DHT22;5198;52.382;9.020;2023-03-01T01:48:19;-2.00;99.90
10306;DHT22;5198;52.382;9.020;2023-03-01T01:52:24;-2.00;99.90
10306;DHT22;5198;52.382;9.020;2023-03-01T01:56:28;-2.00;99.90
10306;DHT22;5198;52.382;9.020;2023-03-01T02:00:32;-2.10;99.90
10306;DHT22;5198;52.382;9.020;2023-03-01T02:04:36;-2.10;99.90
10306;DHT22;5198;52.382;9.020;2023-03-01T02:08:40;-2.20;99.90
10306;DHT22;5198;52.382;9.020;2023-03-01T02:12:43;-2.20;99.90
10306;DHT22;5198;52.382;9.020;2023-03-01T02:16:54;-2.20;99.90
10306;DHT22;5198;52.382;9.020;2023-03-01T02:21:03;-2.30;99.90
10306;DHT22;5198;52.382;9.020;2023-03-01T02:25:11;-2.30;99.90
10306;DHT22;5198;52.382;9.020;2023-03-01T02:29:16;-2.40;99.90
10306;DHT22;5198;52.382;9.020;2023-03-01T02:33:19;-2.40;99.90
10306;DHT22;5198;52.382;9.020;2023-03-01T02:37:22;-2.40;99.90
10306;DHT22;5198;52.382;9.020;2023-03-01T02:41:27;-2.40;99.90
10306;DHT22;5198;52.382;9.020;2023-03-01T02:45:32;-2.50;99.90
10306;DHT22;5198;52.382;9.020;2023-03-01T02:49:35;-2.50;99.90
10306;DHT22;5198;52.382;9.020;2023-03-01T02:53:39;-2.50;99.90
10306;DHT22;5198;52.382;9.020;2023-03-01T02:57:45;-2.50;99.90
10306;DHT22;5198;52.382;9.020;2023-03-01T03:01:49;-2.50;99.90
10306;DHT22;5198;52.382;9.020;2023-03-01T03:05:52;-2.60;99.90
10306;DHT22;5198;52.382;9.020;2023-03-01T03:09:55;-2.60;99.90
10306;DHT22;5198;52.382;9.020;2023-03-01T03:13:58;-2.60;99.90
10306;DHT22;5198;52.382;9.020;2023-03-01T03:18:02;-2.60;99.90
10306;DHT22;5198;52.382;9.020;2023-03-01T03:22:05;-2.70;99.90
10306;DHT22;5198;52.382;9.020;2023-03-01T03:26:10;-2.70;99.90
10306;DHT22;5198;52.382;9.020;2023-03-01T03:30:17;-2.70;99.90
10306;DHT22;5198;52.382;9.020;2023-03-01T03:34:21;-2.70;99.90
10306;DHT22;5198;52.382;9.020;2023-03-01T03:38:26;-2.80;99.90
10306;DHT22;5198;52.382;9.020;2023-03-01T03:42:29;-2.80;99.90
10306;DHT22;5198;52.382;9.020;2023-03-01T03:46:32;-2.80;99.90
10306;DHT22;5198;52.382;9.020;2023-03-01T03:50:37;-2.90;99.90
10306;DHT22;5198;52.382;9.020;2023-03-01T03:54:40;-2.90;99.90
10306;DHT22;5198;52.382;9.020;2023-03-01T03:58:43;-3.00;99.90
10306;DHT22;5198;52.382;9.020;2023-03-01T04:02:46;-3.00;99.90
10306;DHT22;5198;52.382;9.020;2023-03-01T04:06:51;-3.00;99.90
10306;DHT22;5198;52.382;9.020;2023-03-01T04:10:56;-3.00;99.90
10306;DHT22;5198;52.382;9.020;2023-03-01T04:14:59;-3.00;99.90
10306;DHT22;5198;52.382;9.020;2023-03-01T04:19:06;-3.00;99.90
10306;DHT22;5198;52.382;9.020;2023-03-01T04:23:13;-3.10;99.90
10306;DHT22;5198;52.382;9.020;2023-03-01T04:27:17;-3.00;99.90
10306;DHT22;5198;52.382;9.020;2023-03-01T04:31:20;-3.10;99.90
10306;DHT22;5198;52.382;9.020;2023-03-01T04:35:23;-3.10;99.90
10306;DHT22;5198;52.382;9.020;2023-03-01T04:39:34;-3.10;99.90
10306;DHT22;5198;52.382;9.020;2023-03-01T04:43:47;-3.10;99.90
10306;DHT22;5198;52.382;9.020;2023-03-01T04:47:50;-3.10;99.90
10306;DHT22;5198;52.382;9.020;2023-03-01T04:51:54;-3.10;99.90
10306;DHT22;5198;52.382;9.020;2023-03-01T04:56:05;-3.10;99.90
10306;DHT22;5198;52.382;9.020;2023-03-01T05:00:09;-3.10;99.90
10306;DHT22;5198;52.382;9.020;2023-03-01T05:04:22;-3.10;99.90
10306;DHT22;5198;52.382;9.020;2023-03-01T05:08:25;-3.10;99.90
10306;DHT22;5198;52.382;9.020;2023-03-01T05:12:29;-3.20;99.90
10306;DHT22;5198;52.382;9.020;2023-03-01T05:16:38;-3.20;99.90
10306;DHT22;5198;52.382;9.020;2023-03-01T05:20:41;-3.20;99.90
10306;DHT22;5198;52.382;9.020;2023-03-01T05:24:44;-3.20;99.90
10306;DHT22;5198;52.382;9.020;2023-03-01T05:28:49;-3.20;99.90
10306;DHT22;5198;52.382;9.020;2023-03-01T05:32:52;-3.30;99.90
10306;DHT22;5198;52.382;9.020;2023-03-01T05:41:19;-3.30;99.90
10306;DHT22;5198;52.382;9.020;2023-03-01T05:45:24;-3.40;99.90
10306;DHT22;5198;52.382;9.020;2023-03-01T05:49:27;-3.40;99.90
10306;DHT22;5198;52.382;9.020;2023-03-01T05:53:31;-3.40;99.90
10306;DHT22;5198;52.382;9.020;2023-03-01T05:57:34;-3.50;99.90
10306;DHT22;5198;52.382;9.020;2023-03-01T06:01:38;-3.50;99.90
10306;DHT22;5198;52.382;9.020;2023-03-01T06:05:41;-3.60;99.90
10306;DHT22;5198;52.382;9.020;2023-03-01T06:09:44;-3.60;99.90
10306;DHT22;5198;52.382;9.020;2023-03-01T06:13:47;-3.60;99.90
10306;DHT22;5198;52.382;9.020;2023-03-01T06:17:52;-3.60;99.90
10306;DHT22;5198;52.382;9.020;2023-03-01T06:21:58;-3.60;99.90
10306;DHT22;5198;52.382;9.020;2023-03-01T06:26:04;-3.60;99.90
10306;DHT22;5198;52.382;9.020;2023-03-01T06:30:08;-3.70;99.90
10306;DHT22;5198;52.382;9.020;2023-03-01T06:34:12;-3.60;99.90
10306;DHT22;5198;52.382;9.020;2023-03-01T06:38:15;-3.60;99.90
10306;DHT22;5198;52.382;9.020;2023-03-01T06:42:20;-3.50;99.90
10306;DHT22;5198;52.382;9.020;2023-03-01T06:46:23;-3.40;99.90
10306;DHT22;5198;52.382;9.020;2023-03-01T06:50:27;-3.30;99.90
10306;DHT22;5198;52.382;9.020;2023-03-01T06:54:30;-3.20;99.90
10306;DHT22;5198;52.382;9.020;2023-03-01T06:58:33;-3.00;99.90
10306;DHT22;5198;52.382;9.020;2023-03-01T07:02:36;-2.90;99.90
10306;DHT22;5198;52.382;9.020;2023-03-01T07:06:40;-2.60;99.90
10306;DHT22;5198;52.382;9.020;2023-03-01T07:10:43;-2.40;99.90
10306;DHT22;5198;52.382;9.020;2023-03-01T07:14:46;-2.10;99.90
10306;DHT22;5198;52.382;9.020;2023-03-01T07:18:49;-1.70;99.90
10306;DHT22;5198;52.382;9.020;2023-03-01T07:22:53;-1.20;99.90
10306;DHT22;5198;52.382;9.020;2023-03-01T07:26:58;0.30;99.90
10306;DHT22;5198;52.382;9.020;2023-03-01T07:31:01;1.10;99.90
10306;DHT22;5198;52.382;9.020;2023-03-01T07:35:04;1.60;99.90
10306;DHT22;5198;52.382;9.020;2023-03-01T07:39:09;1.90;99.90
10306;DHT22;5198;52.382;9.020;2023-03-01T07:43:18;2.60;99.90
10306;DHT22;5198;52.382;9.020;2023-03-01T07:47:22;3.00;99.90
10306;DHT22;5198;52.382;9.020;2023-03-01T07:51:25;3.00;99.90
10306;DHT22;5198;52.382;9.020;2023-03-01T07:55:29;2.70;99.90
10306;DHT22;5198;52.382;9.020;2023-03-01T07:59:32;2.50;99.90
10306;DHT22;5198;52.382;9.020;2023-03-01T08:03:35;2.50;99.90
10306;DHT22;5198;52.382;9.020;2023-03-01T08:07:38;3.00;99.90
10306;DHT22;5198;52.382;9.020;2023-03-01T08:11:42;3.70;99.90
10306;DHT22;5198;52.382;9.020;2023-03-01T08:15:45;4.40;99.90
10306;DHT22;5198;52.382;9.020;2023-03-01T08:19:48;5.20;99.90
10306;DHT22;5198;52.382;9.020;2023-03-01T08:23:52;5.90;99.90
10306;DHT22;5198;52.382;9.020;2023-03-01T08:27:56;6.40;99.90
10306;DHT22;5198;52.382;9.020;2023-03-01T08:31:59;7.00;99.90
10306;DHT22;5198;52.382;9.020;2023-03-01T08:36:03;7.60;99.90
10306;DHT22;5198;52.382;9.020;2023-03-01T08:40:08;8.20;99.90
10306;DHT22;5198;52.382;9.020;2023-03-01T08:44:14;8.90;99.90
10306;DHT22;5198;52.382;9.020;2023-03-01T08:48:18;9.50;99.90
10306;DHT22;5198;52.382;9.020;2023-03-01T08:52:21;10.10;99.90
10306;DHT22;5198;52.382;9.020;2023-03-01T08:56:26;10.60;99.90
10306;DHT22;5198;52.382;9.020;2023-03-01T09:00:30;11.00;99.90
10306;DHT22;5198;52.382;9.020;2023-03-01T09:04:36;11.50;99.90
10306;DHT22;5198;52.382;9.020;2023-03-01T09:08:39;12.00;99.90
10306;DHT22;5198;52.382;9.020;2023-03-01T09:12:42;12.50;99.90
10306;DHT22;5198;52.382;9.020;2023-03-01T09:16:47;12.90;99.90
10306;DHT22;5198;52.382;9.020;2023-03-01T09:20:50;13.40;99.90
10306;DHT22;5198;52.382;9.020;2023-03-01T09:24:52;13.60;99.90
10306;DHT22;5198;52.382;9.020;2023-03-01T09:28:55;14.10;99.90
10306;DHT22;5198;52.382;9.020;2023-03-01T09:33:00;14.40;99.90
10306;DHT22;5198;52.382;9.020;2023-03-01T09:37:02;14.90;99.90
10306;DHT22;5198;52.382;9.020;2023-03-01T09:41:09;15.40;99.90
10306;DHT22;5198;52.382;9.020;2023-03-01T09:53:23;16.30;99.90
10306;DHT22;5198;52.382;9.020;2023-03-01T09:57:33;16.50;99.90
10306;DHT22;5198;52.382;9.020;2023-03-01T10:01:40;16.70;99.90
10306;DHT22;5198;52.382;9.020;2023-03-01T10:05:47;17.10;99.90
10306;DHT22;5198;52.382;9.020;2023-03-01T10:18:01;18.10;99.90
10306;DHT22;5198;52.382;9.020;2023-03-01T10:22:11;18.30;99.90
10306;DHT22;5198;52.382;9.020;2023-03-01T10:26:20;18.40;99.90
10306;DHT22;5198;52.382;9.020;2023-03-01T10:30:29;18.60;99.90
10306;DHT22;5198;52.382;9.020;2023-03-01T10:34:36;19.00;99.90
10306;DHT22;5198;52.382;9.020;2023-03-01T10:38:49;19.30;99.90
10306;DHT22;5198;52.382;9.020;2023-03-01T10:42:53;19.40;99.90
10306;DHT22;5198;52.382;9.020;2023-03-01T10:47:00;19.60;99.90
10306;DHT22;5198;52.382;9.020;2023-03-01T10:51:06;19.70;99.90
10306;DHT22;5198;52.382;9.020;2023-03-01T10:55:22;19.60;99.90
10306;DHT22;5198;52.382;9.020;2023-03-01T10:59:27;19.70;99.90
10306;DHT22;5198;52.382;9.020;2023-03-01T11:03:30;19.90;99.90
10306;DHT22;5198;52.382;9.020;2023-03-01T11:07:36;19.90;99.90
10306;DHT22;5198;52.382;9.020;2023-03-01T11:11:51;20.00;99.90
10306;DHT22;5198;52.382;9.020;2023-03-01T11:15:58;20.20;99.90
10306;DHT22;5198;52.382;9.020;2023-03-01T11:20:02;20.20;99.90
10306;DHT22;5198;52.382;9.020;2023-03-01T11:24:10;20.30;99.90
10306;DHT22;5198;52.382;9.020;2023-03-01T11:28:14;20.40;99.90
10306;DHT22;5198;52.382;9.020;2023-03-01T11:32:18;20.60;99.90
10306;DHT22;5198;52.382;9.020;2023-03-01T11:36:24;20.70;99.90
10306;DHT22;5198;52.382;9.020;2023-03-01T11:40:32;20.70;99.90
10306;DHT22;5198;52.382;9.020;2023-03-01T11:48:44;20.90;99.90
10306;DHT22;5198;52.382;9.020;2023-03-01T11:52:57;21.10;99.90
10306;DHT22;5198;52.382;9.020;2023-03-01T11:57:04;21.20;99.90
10306;DHT22;5198;52.382;9.020;2023-03-01T12:01:12;21.30;99.90
10306;DHT22;5198;52.382;9.020;2023-03-01T12:09:46;21.40;99.90
10306;DHT22;5198;52.382;9.020;2023-03-01T12:13:56;21.50;99.90
10306;DHT22;5198;52.382;9.020;2023-03-01T12:18:13;21.60;99.90
10306;DHT22;5198;52.382;9.020;2023-03-01T12:22:23;21.60;99.90
10306;DHT22;5198;52.382;9.020;2023-03-01T12:26:29;21.70;99.90
10306;DHT22;5198;52.382;9.020;2023-03-01T12:30:38;21.70;99.90
10306;DHT22;5198;52.382;9.020;2023-03-01T12:34:48;21.80;99.90
10306;DHT22;5198;52.382;9.020;2023-03-01T12:42:58;21.80;99.90
10306;DHT22;5198;52.382;9.020;2023-03-01T12:47:07;21.80;99.90
10306;DHT22;5198;52.382;9.020;2023-03-01T12:51:14;21.80;99.90
10306;DHT22;5198;52.382;9.020;2023-03-01T12:55:22;21.80;99.90
10306;DHT22;5198;52.382;9.020;2023-03-01T12:59:28;21.80;99.10
10306;DHT22;5198;52.382;9.020;2023-03-01T13:03:36;21.80;98.80
10306;DHT22;5198;52.382;9.020;2023-03-01T13:07:43;21.40;98.10
10306;DHT22;5198;52.382;9.020;2023-03-01T13:11:47;20.50;96.20
10306;DHT22;5198;52.382;9.020;2023-03-01T13:15:50;19.50;95.80
10306;DHT22;5198;52.382;9.020;2023-03-01T13:19:59;18.50;95.70
10306;DHT22;5198;52.382;9.020;2023-03-01T13:24:02;17.60;95.90
10306;DHT22;5198;52.382;9.020;2023-03-01T13:32:29;15.90;95.80
10306;DHT22;5198;52.382;9.020;2023-03-01T13:36:50;15.20;97.60
10306;DHT22;5198;52.382;9.020;2023-03-01T13:40:59;14.50;97.60
10306;DHT22;5198;52.382;9.020;2023-03-01T13:45:04;13.90;98.20
10306;DHT22;5198;52.382;9.020;2023-03-01T13:49:11;13.40;97.90
10306;DHT22;5198;52.382;9.020;2023-03-01T13:53:20;13.00;98.30
10306;DHT22;5198;52.382;9.020;2023-03-01T13:57:31;12.60;97.10
10306;DHT22;5198;52.382;9.020;2023-03-01T14:01:36;12.30;99.40
10306;DHT22;5198;52.382;9.020;2023-03-01T14:05:40;12.10;99.90
10306;DHT22;5198;52.382;9.020;2023-03-01T14:09:47;11.80;99.80
10306;DHT22;5198;52.382;9.020;2023-03-01T14:14:27;11.60;98.70
10306;DHT22;5198;52.382;9.020;2023-03-01T14:18:35;11.30;99.10
10306;DHT22;5198;52.382;9.020;2023-03-01T14:22:42;11.20;99.90
10306;DHT22;5198;52.382;9.020;2023-03-01T14:26:49;11.00;99.10
10306;DHT22;5198;52.382;9.020;2023-03-01T14:30:53;10.80;98.20
10306;DHT22;5198;52.382;9.020;2023-03-01T14:34:57;10.70;99.00
10306;DHT22;5198;52.382;9.020;2023-03-01T14:39:01;10.60;99.40
10306;DHT22;5198;52.382;9.020;2023-03-01T14:43:11;10.50;99.10
10306;DHT22;5198;52.382;9.020;2023-03-01T14:47:25;10.40;99.40
10306;DHT22;5198;52.382;9.020;2023-03-01T14:51:30;10.30;99.90
10306;DHT22;5198;52.382;9.020;2023-03-01T14:55:35;10.30;99.90
10306;DHT22;5198;52.382;9.020;2023-03-01T14:59:41;10.50;99.90
10306;DHT22;5198;52.382;9.020;2023-03-01T15:03:46;10.90;99.90
10306;DHT22;5198;52.382;9.020;2023-03-01T15:07:51;11.40;99.90
10306;DHT22;5198;52.382;9.020;2023-03-01T15:11:54;11.90;99.90
10306;DHT22;5198;52.382;9.020;2023-03-01T15:16:08;12.50;99.90
10306;DHT22;5198;52.382;9.020;2023-03-01T15:20:17;13.10;99.90
10306;DHT22;5198;52.382;9.020;2023-03-01T15:24:24;13.50;99.90
10306;DHT22;5198;52.382;9.020;2023-03-01T15:28:30;13.90;99.90
10306;DHT22;5198;52.382;9.020;2023-03-01T15:32:36;14.30;99.90
10306;DHT22;5198;52.382;9.020;2023-03-01T15:36:45;14.60;99.90
10306;DHT22;5198;52.382;9.020;2023-03-01T15:40:52;14.90;99.30
10306;DHT22;5198;52.382;9.020;2023-03-01T15:45:07;14.90;99.90
10306;DHT22;5198;52.382;9.020;2023-03-01T15:49:26;15.00;99.40
10306;DHT22;5198;52.382;9.020;2023-03-01T15:53:30;15.20;99.50
10306;DHT22;5198;52.382;9.020;2023-03-01T15:57:33;15.30;99.40
10306;DHT22;5198;52.382;9.020;2023-03-01T16:01:36;15.30;99.50
10306;DHT22;5198;52.382;9.020;2023-03-01T16:05:41;15.40;99.70
10306;DHT22;5198;52.382;9.020;2023-03-01T16:09:44;15.30;96.90
10306;DHT22;5198;52.382;9.020;2023-03-01T16:13:48;15.30;97.30
10306;DHT22;5198;52.382;9.020;2023-03-01T16:17:51;15.20;96.40
10306;DHT22;5198;52.382;9.020;2023-03-01T16:21:56;15.00;95.40
10306;DHT22;5198;52.382;9.020;2023-03-01T16:25:59;14.70;94.80
10306;DHT22;5198;52.382;9.020;2023-03-01T16:30:04;14.30;95.90
10306;DHT22;5198;52.382;9.020;2023-03-01T16:34:07;13.90;95.30
10306;DHT22;5198;52.382;9.020;2023-03-01T16:38:11;13.50;95.00
10306;DHT22;5198;52.382;9.020;2023-03-01T16:42:14;13.00;96.00
10306;DHT22;5198;52.382;9.020;2023-03-01T16:46:19;12.60;95.40
10306;DHT22;5198;52.382;9.020;2023-03-01T16:50:23;12.30;95.60
10306;DHT22;5198;52.382;9.020;2023-03-01T16:54:27;11.90;95.10
10306;DHT22;5198;52.382;9.020;2023-03-01T16:58:30;11.50;95.50
10306;DHT22;5198;52.382;9.020;2023-03-01T17:02:33;11.10;96.40
10306;DHT22;5198;52.382;9.020;2023-03-01T17:06:37;10.70;95.70
10306;DHT22;5198;52.382;9.020;2023-03-01T17:10:42;10.40;95.80
10306;DHT22;5198;52.382;9.020;2023-03-01T17:14:44;10.00;96.10
10306;DHT22;5198;52.382;9.020;2023-03-01T17:18:50;9.70;95.80
10306;DHT22;5198;52.382;9.020;2023-03-01T17:22:53;9.40;95.40
10306;DHT22;5198;52.382;9.020;2023-03-01T17:26:57;9.10;95.40
10306;DHT22;5198;52.382;9.020;2023-03-01T17:31:01;8.80;95.60
10306;DHT22;5198;52.382;9.020;2023-03-01T17:35:07;8.60;95.80
10306;DHT22;5198;52.382;9.020;2023-03-01T17:39:12;8.30;96.00
10306;DHT22;5198;52.382;9.020;2023-03-01T17:43:17;8.00;96.20
10306;DHT22;5198;52.382;9.020;2023-03-01T17:47:20;7.80;96.00
10306;DHT22;5198;52.382;9.020;2023-03-01T17:51:23;7.60;96.20
10306;DHT22;5198;52.382;9.020;2023-03-01T17:55:26;7.40;96.30
10306;DHT22;5198;52.382;9.020;2023-03-01T17:59:35;7.20;96.70
10306;DHT22;5198;52.382;9.020;2023-03-01T18:03:38;7.00;96.40
10306;DHT22;5198;52.382;9.020;2023-03-01T18:07:43;6.80;96.70
10306;DHT22;5198;52.382;9.020;2023-03-01T18:11:46;6.60;96.70
10306;DHT22;5198;52.382;9.020;2023-03-01T18:15:50;6.40;97.20
10306;DHT22;5198;52.382;9.020;2023-03-01T18:19:53;6.30;97.30
10306;DHT22;5198;52.382;9.020;2023-03-01T18:23:57;6.10;97.40
10306;DHT22;5198;52.382;9.020;2023-03-01T18:28:02;6.00;97.70
10306;DHT22;5198;52.382;9.020;2023-03-01T18:32:07;5.80;97.90
10306;DHT22;5198;52.382;9.020;2023-03-01T18:36:21;5.60;97.90
10306;DHT22;5198;52.382;9.020;2023-03-01T18:40:25;5.50;98.00
10306;DHT22;5198;52.382;9.020;2023-03-01T18:44:28;5.30;98.00
10306;DHT22;5198;52.382;9.020;2023-03-01T18:48:33;5.10;98.00
10306;DHT22;5198;52.382;9.020;2023-03-01T18:52:37;5.00;98.10
10306;DHT22;5198;52.382;9.020;2023-03-01T18:56:41;4.80;98.20
10306;DHT22;5198;52.382;9.020;2023-03-01T19:00:45;4.70;98.20
10306;DHT22;5198;52.382;9.020;2023-03-01T19:04:49;4.50;98.30
10306;DHT22;5198;52.382;9.020;2023-03-01T19:08:52;4.30;98.30
10306;DHT22;5198;52.382;9.020;2023-03-01T19:12:55;4.20;98.40
10306;DHT22;5198;52.382;9.020;2023-03-01T19:16:58;4.00;98.60
10306;DHT22;5198;52.382;9.020;2023-03-01T19:21:04;3.90;99.00
10306;DHT22;5198;52.382;9.020;2023-03-01T19:25:08;3.80;98.90
10306;DHT22;5198;52.382;9.020;2023-03-01T19:29:11;3.70;99.00
10306;DHT22;5198;52.382;9.020;2023-03-01T19:33:15;3.60;99.00
10306;DHT22;5198;52.382;9.020;2023-03-01T19:37:19;3.50;99.10
10306;DHT22;5198;52.382;9.020;2023-03-01T19:41:24;3.50;99.20
10306;DHT22;5198;52.382;9.020;2023-03-01T19:45:27;3.40;99.30
10306;DHT22;5198;52.382;9.020;2023-03-01T19:49:34;3.40;99.40
10306;DHT22;5198;52.382;9.020;2023-03-01T19:53:39;3.30;99.60
10306;DHT22;5198;52.382;9.020;2023-03-01T19:57:42;3.30;99.60
10306;DHT22;5198;52.382;9.020;2023-03-01T20:01:45;3.20;99.60
10306;DHT22;5198;52.382;9.020;2023-03-01T20:05:48;3.30;99.70
10306;DHT22;5198;52.382;9.020;2023-03-01T20:09:54;3.30;99.70
10306;DHT22;5198;52.382;9.020;2023-03-01T20:13:57;3.20;99.70
10306;DHT22;5198;52.382;9.020;2023-03-01T20:18:00;3.20;99.80
10306;DHT22;5198;52.382;9.020;2023-03-01T20:22:03;3.10;99.70
10306;DHT22;5198;52.382;9.020;2023-03-01T20:26:09;3.10;99.70
10306;DHT22;5198;52.382;9.020;2023-03-01T20:30:16;3.00;99.70
10306;DHT22;5198;52.382;9.020;2023-03-01T20:34:19;3.00;99.70
10306;DHT22;5198;52.382;9.020;2023-03-01T20:38:22;2.90;99.80
10306;DHT22;5198;52.382;9.020;2023-03-01T20:42:27;2.80;99.90
10306;DHT22;5198;52.382;9.020;2023-03-01T20:46:30;2.70;99.90
10306;DHT22;5198;52.382;9.020;2023-03-01T20:50:34;2.70;99.90
10306;DHT22;5198;52.382;9.020;2023-03-01T20:54:41;2.60;99.90
10306;DHT22;5198;52.382;9.020;2023-03-01T20:58:46;2.50;99.90
10306;DHT22;5198;52.382;9.020;2023-03-01T21:02:49;2.50;99.90
10306;DHT22;5198;52.382;9.020;2023-03-01T21:06:52;2.40;99.90
10306;DHT22;5198;52.382;9.020;2023-03-01T21:10:56;2.40;99.90
10306;DHT22;5198;52.382;9.020;2023-03-01T21:15:00;2.30;99.90
10306;DHT22;5198;52.382;9.020;2023-03-01T21:19:03;2.30;99.90
10306;DHT22;5198;52.382;9.020;2023-03-01T21:23:06;2.20;99.90
10306;DHT22;5198;52.382;9.020;2023-03-01T21:27:10;2.20;99.90
10306;DHT22;5198;52.382;9.020;2023-03-01T21:31:17;2.10;99.90
10306;DHT22;5198;52.382;9.020;2023-03-01T21:35:20;2.10;99.90
10306;DHT22;5198;52.382;9.020;2023-03-01T21:39:23;2.00;99.90
10306;DHT22;5198;52.382;9.020;2023-03-01T21:43:29;2.00;99.90
10306;DHT22;5198;52.382;9.020;2023-03-01T21:47:34;2.00;99.90
10306;DHT22;5198;52.382;9.020;2023-03-01T21:51:37;2.00;99.90
10306;DHT22;5198;52.382;9.020;2023-03-01T21:55:45;1.90;99.90
10306;DHT22;5198;52.382;9.020;2023-03-01T21:59:49;1.90;99.90
10306;DHT22;5198;52.382;9.020;2023-03-01T22:03:56;1.90;99.90
10306;DHT22;5198;52.382;9.020;2023-03-01T22:08:00;1.80;99.90
10306;DHT22;5198;52.382;9.020;2023-03-01T22:12:05;1.80;99.90
10306;DHT22;5198;52.382;9.020;2023-03-01T22:16:08;1.70;99.90
10306;DHT22;5198;52.382;9.020;2023-03-01T22:20:13;1.70;99.90
10306;DHT22;5198;52.382;9.020;2023-03-01T22:24:18;1.60;99.90
10306;DHT22;5198;52.382;9.020;2023-03-01T22:28:22;1.50;99.90
10306;DHT22;5198;52.382;9.020;2023-03-01T22:32:25;1.40;99.90
10306;DHT22;5198;52.382;9.020;2023-03-01T22:36:30;1.40;99.90
10306;DHT22;5198;52.382;9.020;2023-03-01T22:40:34;1.30;99.90
10306;DHT22;5198;52.382;9.020;2023-03-01T22:44:39;1.30;99.90
10306;DHT22;5198;52.382;9.020;2023-03-01T22:48:43;1.20;99.90
10306;DHT22;5198;52.382;9.020;2023-03-01T22:52:48;1.20;99.90
10306;DHT22;5198;52.382;9.020;2023-03-01T22:56:51;1.20;99.90
10306;DHT22;5198;52.382;9.020;2023-03-01T23:00:54;1.10;99.90
10306;DHT22;5198;52.382;9.020;2023-03-01T23:04:57;1.10;99.90
10306;DHT22;5198;52.382;9.020;2023-03-01T23:09:02;1.10;99.90
10306;DHT22;5198;52.382;9.020;2023-03-01T23:13:07;1.10;99.90
10306;DHT22;5198;52.382;9.020;2023-03-01T23:17:10;1.10;99.90
10306;DHT22;5198;52.382;9.020;2023-03-01T23:21:16;1.10;99.90
10306;DHT22;5198;52.382;9.020;2023-03-01T23:25:20;1.00;99.90
10306;DHT22;5198;52.382;9.020;2023-03-01T23:29:23;0.90;99.90
10306;DHT22;5198;52.382;9.020;2023-03-01T23:33:28;0.90;99.90
10306;DHT22;5198;52.382;9.020;2023-03-01T23:37:33;0.80;99.90
10306;DHT22;5198;52.382;9.020;2023-03-01T23:41:38;0.70;99.90
10306;DHT22;5198;52.382;9.020;2023-03-01T23:45:41;0.70;99.90
10306;DHT22;5198;52.382;9.020;2023-03-01T23:49:44;0.60;99.90
10306;DHT22;5198;52.382;9.020;2023-03-01T23:53:49;0.60;99.90
10306;DHT22;5198;52.382;9.020;2023-03-01T23:57:57;0.60;99.90
